الصفحة الرئيسية
METAR-TAF:

METAR-TAF

مطار :

مطار شيان شيانيانغ الدولي

شيان, جمهورية الصين الشعبية

دائرة عرض: 34-26N, خط طول: 108-45E, ارتفاع: 479 متر

مراقبة الطقس الحالي

تاريخ ووقت الإصدار 1ساعة و 0 دقيقة قبل الساعة 00:00UTC
ريح 12 عقدة من الشرق/الشمال الشرقي
درجة الحرارة 27°درجة مئوية
الرطوبة 54%
ضغط 1004 hPa
الرؤية 10 كم أو أكثر
الغيوم لا تقل 1500 م ولا وجود لمزنة ركامية السحاب الأسود

METAR: ZLXY 240000Z 06006MPS CAVOK 27/17 Q1004 NOSIG

زمن: 09:00 (01:00 UTC)

توقعات

تاريخ ووقت الإصدار 5ساعات و 32 دقيقة قبل الساعة 19:28UTC
التوقعات صالحة من24 الساعة 00 UTC إلى 24 الساعة 24 UTC
ريح 6 عقدة من الشرق/الشمال الشرقي
الرؤية: 3000 متر
العجاج

TAF: ZLXY 231928Z 2400/2424 06003MPS 3000 HZ NSC TX35/2408Z TN24/2422Z

أرصاد الطقس والتوقعات من أكثر من 4000 مطار (تقارير الطقس للمطار METAR والتنبؤ بالطقس بالمطارTAF).

المحطات المتاحة هي النقط الصفراء والحمراء على الخريطة.

حرك المؤشر فوق النقطة لمعرفة اسم المحطة.

ثم انقر لمعرفة أرصاد وتوقعات الطقس.

لتغيير الخارطة: اضغط على الأزرار الخضراء مع رمز الصليب الأسود للتكبير. على الزر الأخضر مع شرطة للتصغير، أو على الأسهم الخضراء للخرائط المجاورة.


METAR-TAF: